createdAt,value
2023-01-08T00:00:34.421Z,3.92
2023-01-08T00:03:02.213Z,3.85
2023-01-08T00:05:29.853Z,3.55
2023-01-08T00:07:57.491Z,3.88
2023-01-08T00:10:25.203Z,3.67
2023-01-08T00:12:56.270Z,3.10
2023-01-08T00:15:24.342Z,3.42
2023-01-08T00:17:52.016Z,3.35
2023-01-08T00:20:19.664Z,4.00
2023-01-08T00:22:49.328Z,3.47
2023-01-08T00:25:17.356Z,3.90
2023-01-08T00:27:45.713Z,3.95
2023-01-08T00:30:15.427Z,3.65
2023-01-08T00:32:43.090Z,4.20
2023-01-08T00:35:11.063Z,4.28
2023-01-08T00:37:38.752Z,3.20
2023-01-08T00:40:08.004Z,3.78
2023-01-08T00:42:35.684Z,3.83
2023-01-08T00:45:03.291Z,3.50
2023-01-08T00:47:32.299Z,3.70
2023-01-08T00:50:00.009Z,3.88
2023-01-08T00:52:27.716Z,4.10
2023-01-08T00:54:55.418Z,4.28
2023-01-08T00:57:23.089Z,3.95
2023-01-08T00:59:50.807Z,3.80
2023-01-08T01:02:18.537Z,4.03
2023-01-08T01:04:47.575Z,4.22
2023-01-08T01:07:15.239Z,3.78
2023-01-08T01:09:42.945Z,4.45
2023-01-08T01:12:10.830Z,3.95
2023-01-08T01:14:39.162Z,3.85
2023-01-08T01:17:06.917Z,4.10
2023-01-08T01:19:34.517Z,4.30
2023-01-08T01:22:03.578Z,4.60
2023-01-08T01:24:31.269Z,4.47
2023-01-08T01:26:58.952Z,4.15
2023-01-08T01:29:27.020Z,4.47
2023-01-08T01:31:54.592Z,4.68
2023-01-08T01:34:22.249Z,4.13
2023-01-08T01:36:49.931Z,4.40
2023-01-08T01:39:19.890Z,4.60
2023-01-08T01:41:48.064Z,4.63
2023-01-08T01:44:43.537Z,5.07
2023-01-08T01:47:19.211Z,4.40
2023-01-08T01:49:51.687Z,4.95
2023-01-08T01:52:22.232Z,4.82
2023-01-08T01:57:20.495Z,4.75
2023-01-08T01:59:49.549Z,4.80
2023-01-08T02:02:17.406Z,4.93
2023-01-08T02:04:45.246Z,4.68
2023-01-08T02:07:21.463Z,5.10
2023-01-08T02:09:54.319Z,4.82
2023-01-08T02:12:27.422Z,5.30
2023-01-08T02:15:01.973Z,4.88
2023-01-08T02:17:37.254Z,5.07
2023-01-08T02:20:11.791Z,4.63
2023-01-08T02:22:48.858Z,4.72
2023-01-08T02:25:30.437Z,4.82
2023-01-08T02:28:03.291Z,4.80
2023-01-08T02:30:31.876Z,5.00
2023-01-08T02:32:59.589Z,5.25
2023-01-08T02:35:38.051Z,5.13
2023-01-08T02:38:06.541Z,5.03
2023-01-08T02:40:38.310Z,4.97
2023-01-08T02:43:12.995Z,5.07
2023-01-08T02:45:47.262Z,5.43
2023-01-08T02:48:19.542Z,4.90
2023-01-08T02:50:52.768Z,5.05
2023-01-08T02:53:24.258Z,5.20
2023-01-08T02:55:56.375Z,5.05
2023-01-08T02:58:27.431Z,4.93
2023-01-08T03:00:55.793Z,5.30
2023-01-08T03:03:27.097Z,5.60
2023-01-08T03:05:57.761Z,5.43
2023-01-08T03:08:26.865Z,4.43
2023-01-08T03:10:59.093Z,5.03
2023-01-08T03:13:33.219Z,4.18
2023-01-08T03:16:04.992Z,4.85
2023-01-08T03:18:38.576Z,5.72
2023-01-08T03:21:07.333Z,4.90
2023-01-08T03:23:37.116Z,4.93
2023-01-08T03:26:07.621Z,5.45
2023-01-08T03:31:08.086Z,5.28
2023-01-08T03:33:37.987Z,5.57
2023-01-08T03:36:07.702Z,5.35
2023-01-08T03:38:40.646Z,4.90
2023-01-08T03:41:12.562Z,5.47
2023-01-08T03:43:41.911Z,5.20
2023-01-08T03:46:16.138Z,5.38
2023-01-08T03:48:45.148Z,5.72
2023-01-08T03:51:14.021Z,6.28
2023-01-08T03:53:41.745Z,5.70
2023-01-08T03:56:09.580Z,5.65
2023-01-08T03:58:37.272Z,5.45
2023-01-08T04:01:06.663Z,6.00
2023-01-08T04:03:34.329Z,6.25
2023-01-08T04:06:02.091Z,5.95
2023-01-08T04:08:29.775Z,6.18
2023-01-08T04:10:57.429Z,6.00
2023-01-08T04:13:25.055Z,5.53
2023-01-08T04:15:52.977Z,5.80
2023-01-08T04:18:22.059Z,5.50
2023-01-08T04:20:49.688Z,5.43
2023-01-08T04:23:17.577Z,5.65
2023-01-08T04:25:45.289Z,4.75
2023-01-08T04:28:12.995Z,5.63
2023-01-08T04:30:40.794Z,5.93
2023-01-08T04:33:08.470Z,4.93
2023-01-08T04:35:37.795Z,6.00
2023-01-08T04:38:05.867Z,5.95
2023-01-08T04:40:33.627Z,5.88
2023-01-08T04:43:01.314Z,5.32
2023-01-08T04:45:29.035Z,5.95
2023-01-08T04:47:57.662Z,5.38
2023-01-08T04:50:25.700Z,4.93
2023-01-08T04:52:54.868Z,5.05
2023-01-08T04:55:22.557Z,4.95
2023-01-08T04:57:50.210Z,5.85
2023-01-08T05:00:18.478Z,6.00
2023-01-08T05:02:46.314Z,6.15
2023-01-08T05:05:14.145Z,6.05
2023-01-08T05:07:41.805Z,6.50
2023-01-08T05:10:11.470Z,6.78
2023-01-08T05:12:39.108Z,6.67
2023-01-08T05:15:07.896Z,6.05
2023-01-08T05:17:35.622Z,6.28
2023-01-08T05:20:03.454Z,6.00
2023-01-08T05:22:31.154Z,6.07
2023-01-08T05:24:58.828Z,6.50
2023-01-08T05:27:29.494Z,6.07
2023-01-08T05:29:57.132Z,6.35
2023-01-08T05:32:24.820Z,5.70
2023-01-08T05:34:52.519Z,6.38
2023-01-08T05:37:20.177Z,6.80
2023-01-08T05:39:47.886Z,6.30
2023-01-08T05:42:15.562Z,6.15
2023-01-08T05:44:44.583Z,5.97
2023-01-08T05:47:12.238Z,9.05
2023-01-08T05:49:39.888Z,10.93
2023-01-08T05:52:08.136Z,7.50
2023-01-08T05:54:35.801Z,6.90
2023-01-08T05:57:03.498Z,6.40
2023-01-08T05:59:31.172Z,6.60
2023-01-08T06:02:00.209Z,6.25
2023-01-08T06:04:28.003Z,5.95
2023-01-08T06:06:55.668Z,7.22
2023-01-08T06:09:23.356Z,6.50
2023-01-08T06:11:51.117Z,6.95
2023-01-08T06:14:18.929Z,6.15
2023-01-08T06:16:46.990Z,6.32
2023-01-08T06:19:16.168Z,6.55
2023-01-08T06:21:43.801Z,6.88
2023-01-08T06:24:11.568Z,6.78
2023-01-08T06:26:39.321Z,7.35
2023-01-08T06:29:07.306Z,7.82
2023-01-08T06:31:35.050Z,12.30
2023-01-08T06:34:02.853Z,8.90
2023-01-08T06:36:31.885Z,7.85
2023-01-08T06:38:59.675Z,7.50
2023-01-08T06:41:27.415Z,7.05
2023-01-08T06:43:55.112Z,6.85
2023-01-08T06:46:23.240Z,7.18
2023-01-08T06:48:50.952Z,6.05
2023-01-08T06:51:18.622Z,7.45
2023-01-08T06:53:48.839Z,7.80
2023-01-08T06:56:16.590Z,7.28
2023-01-08T06:58:44.290Z,7.65
2023-01-08T07:01:15.545Z,7.88
2023-01-08T07:03:43.891Z,7.28
2023-01-08T07:06:16.890Z,7.57
2023-01-08T07:08:44.688Z,7.32
2023-01-08T07:11:14.393Z,7.25
2023-01-08T07:13:42.068Z,7.33
2023-01-08T07:16:11.302Z,6.88
2023-01-08T07:18:39.625Z,6.65
2023-01-08T07:21:09.186Z,6.45
2023-01-08T07:23:38.252Z,6.20
2023-01-08T07:26:08.434Z,6.40
2023-01-08T07:28:37.414Z,5.90
2023-01-08T07:31:06.063Z,5.80
2023-01-08T07:33:34.009Z,6.50
2023-01-08T07:36:01.839Z,7.28
2023-01-08T07:38:29.617Z,6.25
2023-01-08T07:40:58.435Z,6.47
2023-01-08T07:43:26.266Z,5.55
2023-01-08T07:45:55.363Z,6.03
2023-01-08T07:48:23.030Z,6.63
2023-01-08T07:50:50.714Z,5.53
2023-01-08T07:53:18.376Z,5.47
2023-01-08T07:55:47.900Z,5.50
2023-01-08T07:58:15.924Z,5.50
2023-01-08T08:00:43.713Z,5.32
2023-01-08T08:03:12.799Z,5.20
2023-01-08T08:05:40.503Z,5.10
2023-01-08T08:08:10.442Z,5.10
2023-01-08T08:10:38.172Z,5.10
2023-01-08T08:13:06.205Z,5.15
2023-01-08T08:15:34.637Z,5.00
2023-01-08T08:18:02.593Z,5.00
2023-01-08T08:20:32.255Z,5.40
2023-01-08T08:23:01.909Z,4.93
2023-01-08T08:25:29.607Z,5.53
2023-01-08T08:27:58.610Z,4.88
2023-01-08T08:30:26.899Z,6.20
2023-01-08T08:32:55.077Z,5.15
2023-01-08T08:35:23.071Z,5.13
2023-01-08T08:37:52.139Z,5.03
2023-01-08T08:40:19.880Z,5.30
2023-01-08T08:42:47.770Z,4.65
2023-01-08T08:45:15.529Z,5.18
2023-01-08T08:47:43.197Z,4.93
2023-01-08T08:50:11.487Z,4.60
2023-01-08T08:52:39.231Z,5.03
2023-01-08T08:55:13.036Z,4.90
2023-01-08T08:57:40.717Z,6.00
2023-01-08T09:00:11.167Z,4.63
2023-01-08T09:02:38.985Z,5.18
2023-01-08T09:05:07.516Z,5.13
2023-01-08T09:07:35.329Z,4.95
2023-01-08T09:10:03.276Z,4.68
2023-01-08T09:12:32.388Z,5.50
2023-01-08T09:15:00.033Z,5.20
2023-01-08T09:17:27.632Z,7.22
2023-01-08T09:19:55.374Z,6.07
2023-01-08T09:22:23.177Z,4.50
2023-01-08T09:24:50.847Z,4.93
2023-01-08T09:27:18.561Z,4.70
2023-01-08T09:29:47.620Z,5.55
2023-01-08T09:32:15.284Z,5.07
2023-01-08T09:34:43.120Z,6.68
2023-01-08T09:37:10.921Z,5.15
2023-01-08T09:39:41.158Z,5.25
2023-01-08T09:42:14.408Z,8.20
2023-01-08T09:44:46.232Z,7.60
2023-01-08T09:47:24.811Z,5.78
2023-01-08T09:49:56.005Z,5.07
2023-01-08T09:52:23.727Z,4.95
2023-01-08T09:54:51.438Z,5.88
2023-01-08T09:57:22.383Z,5.63
2023-01-08T09:59:51.003Z,5.60
2023-01-08T10:02:22.978Z,5.60
2023-01-08T10:04:55.964Z,5.72
2023-01-08T10:07:25.423Z,5.65
2023-01-08T10:09:54.027Z,5.30
2023-01-08T10:12:27.365Z,5.40
2023-01-08T10:14:58.088Z,5.63
2023-01-08T10:17:32.442Z,5.25
2023-01-08T10:20:00.175Z,4.78
2023-01-08T10:22:33.813Z,5.32
2023-01-08T10:25:08.762Z,4.97
2023-01-08T10:27:46.576Z,4.70
2023-01-08T10:30:18.464Z,5.00
2023-01-08T10:32:54.506Z,4.78
2023-01-08T10:35:25.429Z,5.00
2023-01-08T10:40:25.794Z,6.43
2023-01-08T10:42:55.870Z,4.82
2023-01-08T10:45:26.231Z,4.78
2023-01-08T10:47:58.850Z,4.65
2023-01-08T10:50:29.054Z,6.22
2023-01-08T10:52:58.921Z,5.88
2023-01-08T10:55:28.339Z,5.32
2023-01-08T10:57:58.879Z,5.13
2023-01-08T11:02:58.071Z,5.47
2023-01-08T11:05:35.111Z,5.68
2023-01-08T11:08:06.209Z,5.70
2023-01-08T11:10:35.945Z,6.15
2023-01-08T11:13:07.120Z,6.40
2023-01-08T11:15:38.097Z,5.38
2023-01-08T11:18:13.815Z,10.40
2023-01-08T11:20:42.019Z,6.10
2023-01-08T11:23:17.389Z,6.80
2023-01-08T11:25:49.139Z,10.43
2023-01-08T11:28:22.363Z,7.53
2023-01-08T11:30:56.404Z,6.13
2023-01-08T11:33:31.954Z,6.45
2023-01-08T11:36:05.843Z,6.35
2023-01-08T11:38:33.578Z,6.65
2023-01-08T11:41:16.149Z,7.32
2023-01-08T11:43:57.879Z,7.35
2023-01-08T11:46:39.280Z,6.97
2023-01-08T11:49:26.074Z,6.47
2023-01-08T11:52:08.761Z,6.80
2023-01-08T11:54:56.590Z,6.50
2023-01-08T11:57:38.928Z,6.32
2023-01-08T12:00:20.120Z,6.70
2023-01-08T12:02:54.280Z,6.57
2023-01-08T12:05:32.960Z,6.25
2023-01-08T12:08:05.030Z,6.20
2023-01-08T12:10:42.705Z,5.88
2023-01-08T12:13:28.628Z,6.20
2023-01-08T12:16:06.896Z,6.28
2023-01-08T12:18:48.420Z,6.15
2023-01-08T12:21:27.208Z,6.40
2023-01-08T12:24:12.076Z,6.47
2023-01-08T12:26:50.765Z,6.30
2023-01-08T12:29:36.893Z,5.95
2023-01-08T12:32:18.592Z,5.90
2023-01-08T12:34:56.708Z,6.07
2023-01-08T12:37:30.533Z,6.80
2023-01-08T12:40:07.225Z,6.53
2023-01-08T12:42:46.740Z,6.88
2023-01-08T12:45:20.200Z,6.45
2023-01-08T12:47:53.252Z,5.85
2023-01-08T12:50:28.368Z,7.43
2023-01-08T12:53:05.169Z,6.15
2023-01-08T12:55:43.604Z,6.50
2023-01-08T12:58:23.702Z,6.00
2023-01-08T13:00:57.756Z,5.72
2023-01-08T13:03:29.422Z,6.43
2023-01-08T13:06:09.221Z,5.60
2023-01-08T13:08:40.061Z,5.43
2023-01-08T13:11:09.053Z,5.70
2023-01-08T13:13:41.613Z,5.60
2023-01-08T13:16:18.420Z,5.82
2023-01-08T13:18:56.356Z,6.15
2023-01-08T13:21:32.531Z,5.78
2023-01-08T13:24:26.799Z,5.22
2023-01-08T13:26:54.732Z,5.88
2023-01-08T13:29:39.547Z,5.43
2023-01-08T13:32:42.753Z,6.22
2023-01-08T13:35:29.442Z,5.70
2023-01-08T13:38:15.145Z,6.20
2023-01-08T13:40:56.656Z,6.53
2023-01-08T13:43:29.614Z,6.22
2023-01-08T13:46:09.765Z,6.60
2023-01-08T13:48:40.471Z,6.70
2023-01-08T13:51:29.551Z,6.38
2023-01-08T13:53:57.371Z,6.78
2023-01-08T13:56:27.388Z,6.32
2023-01-08T13:58:55.610Z,7.20
2023-01-08T14:01:23.675Z,6.68
2023-01-08T14:03:51.390Z,7.18
2023-01-08T14:06:20.957Z,7.20
2023-01-08T14:08:53.199Z,7.38
2023-01-08T14:11:24.810Z,6.88
2023-01-08T14:13:54.057Z,7.25
2023-01-08T14:16:22.705Z,7.38
2023-01-08T14:18:51.732Z,7.75
2023-01-08T14:21:23.684Z,8.13
2023-01-08T14:23:53.982Z,8.45
2023-01-08T14:26:32.267Z,8.30
2023-01-08T14:29:02.229Z,8.63
2023-01-08T14:31:30.519Z,7.68
2023-01-08T14:34:00.234Z,8.30
2023-01-08T14:36:28.278Z,8.50
2023-01-08T14:38:55.941Z,8.55
2023-01-08T14:41:49.431Z,8.32
2023-01-08T14:44:21.034Z,8.18
2023-01-08T14:46:55.576Z,8.30
2023-01-08T14:49:27.207Z,7.63
2023-01-08T14:51:55.546Z,8.00
2023-01-08T14:54:27.622Z,9.07
2023-01-08T14:56:58.353Z,8.63
2023-01-08T14:59:30.723Z,8.75
2023-01-08T15:02:03.460Z,8.40
2023-01-08T15:04:31.626Z,8.88
2023-01-08T15:07:09.795Z,8.38
2023-01-08T15:09:37.622Z,8.43
2023-01-08T15:12:07.123Z,8.77
2023-01-08T15:14:37.231Z,8.60
2023-01-08T15:17:11.428Z,9.38
2023-01-08T15:19:43.096Z,9.05
2023-01-08T15:22:19.587Z,9.75
2023-01-08T15:24:58.099Z,9.75
2023-01-08T15:27:26.390Z,9.27
2023-01-08T15:30:00.812Z,9.80
2023-01-08T15:32:32.392Z,9.27
2023-01-08T15:35:00.077Z,10.07
2023-01-08T15:37:28.122Z,9.43
2023-01-08T15:39:55.768Z,9.45
2023-01-08T15:42:55.090Z,9.75
2023-01-08T15:45:28.670Z,10.40
2023-01-08T15:47:56.523Z,9.75
2023-01-08T15:50:25.586Z,10.70
2023-01-08T15:52:53.403Z,10.02
2023-01-08T15:55:24.168Z,11.27
2023-01-08T15:57:52.164Z,10.45
2023-01-08T16:00:22.501Z,10.07
2023-01-08T16:02:53.323Z,10.55
2023-01-08T16:05:24.027Z,11.32
2023-01-08T16:07:52.477Z,10.15
2023-01-08T16:10:20.624Z,10.25
2023-01-08T16:12:48.448Z,10.05
2023-01-08T16:15:16.970Z,10.23
2023-01-08T16:17:45.091Z,9.90
2023-01-08T16:20:14.956Z,9.68
2023-01-08T16:22:42.682Z,9.63
2023-01-08T16:25:10.923Z,9.80
2023-01-08T16:27:40.266Z,9.57
2023-01-08T16:30:09.211Z,9.35
2023-01-08T16:32:36.896Z,9.07
2023-01-08T16:35:04.820Z,9.00
2023-01-08T16:37:33.876Z,9.68
2023-01-08T16:40:01.556Z,9.50
2023-01-08T16:42:29.189Z,9.10
2023-01-08T16:44:56.805Z,10.20
2023-01-08T16:47:24.406Z,8.88
2023-01-08T16:49:52.565Z,8.52
2023-01-08T16:52:20.471Z,8.52
2023-01-08T16:54:49.670Z,8.60
2023-01-08T16:57:17.314Z,9.50
2023-01-08T16:59:44.959Z,8.82
2023-01-08T17:02:12.798Z,9.18
2023-01-08T17:04:40.510Z,8.60
2023-01-08T17:07:08.160Z,8.70
2023-01-08T17:09:35.806Z,8.20
2023-01-08T17:12:05.332Z,9.05
2023-01-08T17:14:33.131Z,8.43
2023-01-08T17:17:00.711Z,9.00
2023-01-08T17:19:28.382Z,9.18
2023-01-08T17:21:56.063Z,8.15
2023-01-08T17:24:23.748Z,9.07
2023-01-08T17:26:51.372Z,9.10
2023-01-08T17:29:20.425Z,8.75
2023-01-08T17:31:48.143Z,9.00
2023-01-08T17:34:15.900Z,8.93
2023-01-08T17:36:44.025Z,8.60
2023-01-08T17:39:12.783Z,9.35
2023-01-08T17:41:57.966Z,8.75
2023-01-08T17:44:27.395Z,8.88
2023-01-08T17:46:55.014Z,8.77
2023-01-08T17:49:22.671Z,8.48
2023-01-08T17:51:51.679Z,8.80
2023-01-08T17:54:19.717Z,8.55
2023-01-08T17:56:48.825Z,8.15
2023-01-08T17:59:18.583Z,14.75
2023-01-08T18:01:47.856Z,9.67
2023-01-08T18:04:16.584Z,8.95
2023-01-08T18:06:44.871Z,9.43
2023-01-08T18:09:13.721Z,9.57
2023-01-08T18:11:42.148Z,9.40
2023-01-08T18:14:12.457Z,10.45
2023-01-08T18:16:40.491Z,9.45
2023-01-08T18:19:10.279Z,10.38
2023-01-08T18:21:38.238Z,10.97
2023-01-08T18:24:06.371Z,9.60
2023-01-08T18:26:34.146Z,9.95
2023-01-08T18:29:01.882Z,9.57
2023-01-08T18:31:30.207Z,11.35
2023-01-08T18:33:58.450Z,10.93
2023-01-08T18:36:28.171Z,10.20
2023-01-08T18:38:57.253Z,11.00
2023-01-08T18:41:43.057Z,11.48
2023-01-08T18:44:11.071Z,11.38
2023-01-08T18:46:39.451Z,11.00
2023-01-08T18:49:07.418Z,11.15
2023-01-08T18:51:36.525Z,10.98
2023-01-08T18:54:05.176Z,10.05
2023-01-08T18:56:35.556Z,10.50
2023-01-08T18:59:04.436Z,10.20
2023-01-08T19:01:32.393Z,10.90
2023-01-08T19:04:00.215Z,9.77
2023-01-08T19:06:28.268Z,10.65
2023-01-08T19:08:58.298Z,11.10
2023-01-08T19:11:26.293Z,10.57
2023-01-08T19:13:55.549Z,11.05
2023-01-08T19:16:23.446Z,12.00
2023-01-08T19:18:51.270Z,12.15
2023-01-08T19:21:19.491Z,11.25
2023-01-08T19:23:48.092Z,11.80
2023-01-08T19:26:17.588Z,12.68
2023-01-08T19:28:45.685Z,11.93
2023-01-08T19:31:15.705Z,11.07
2023-01-08T19:33:44.480Z,11.60
2023-01-08T19:36:14.075Z,12.15
2023-01-08T19:38:43.166Z,11.75
2023-01-08T19:41:31.852Z,11.40
2023-01-08T19:44:00.149Z,11.95
2023-01-08T19:46:28.105Z,11.73
2023-01-08T19:48:57.963Z,11.88
2023-01-08T19:51:26.222Z,12.00
2023-01-08T19:53:54.342Z,12.38
2023-01-08T19:56:22.015Z,11.93
2023-01-08T19:58:50.294Z,12.55
2023-01-08T20:01:24.703Z,12.68
2023-01-08T20:03:53.124Z,12.43
2023-01-08T20:06:22.425Z,12.57
2023-01-08T20:08:52.127Z,13.40
2023-01-08T20:11:20.089Z,13.17
2023-01-08T20:13:47.797Z,13.07
2023-01-08T20:16:17.615Z,12.88
2023-01-08T20:18:47.221Z,13.55
2023-01-08T20:21:16.946Z,12.83
2023-01-08T20:23:45.918Z,12.80
2023-01-08T20:26:15.991Z,12.98
2023-01-08T20:28:45.598Z,13.18
2023-01-08T20:31:15.690Z,12.80
2023-01-08T20:33:44.573Z,12.40
2023-01-08T20:36:15.739Z,13.02
2023-01-08T20:38:44.413Z,13.20
2023-01-08T20:41:12.686Z,12.48
2023-01-08T20:43:41.128Z,12.38
2023-01-08T20:46:11.657Z,12.82
2023-01-08T20:51:17.259Z,14.25
2023-01-08T20:53:44.928Z,12.80
2023-01-08T20:56:14.221Z,13.57
2023-01-08T20:58:43.833Z,13.50
2023-01-08T21:01:14.296Z,12.10
2023-01-08T21:03:43.315Z,14.27
2023-01-08T21:06:13.137Z,12.10
2023-01-08T21:08:44.367Z,13.77
2023-01-08T21:11:13.395Z,13.43
2023-01-08T21:13:41.540Z,12.70
2023-01-08T21:16:12.062Z,12.55
2023-01-08T21:21:08.275Z,12.15
2023-01-08T21:23:36.057Z,11.75
2023-01-08T21:26:09.674Z,11.93
2023-01-08T21:28:37.819Z,11.60
2023-01-08T21:31:06.795Z,12.38
2023-01-08T21:33:34.662Z,11.32
2023-01-08T21:36:04.290Z,12.05
2023-01-08T21:38:32.147Z,11.23
2023-01-08T21:41:00.561Z,12.60
2023-01-08T21:43:47.060Z,11.40
2023-01-08T21:46:16.209Z,11.65
2023-01-08T21:48:44.207Z,11.98
2023-01-08T21:51:25.779Z,11.13
2023-01-08T21:53:53.425Z,10.90
2023-01-08T21:56:21.521Z,11.45
2023-01-08T21:58:50.587Z,11.43
2023-01-08T22:01:18.456Z,11.52
2023-01-08T22:03:46.250Z,11.23
2023-01-08T22:06:13.937Z,11.68
2023-01-08T22:08:41.649Z,11.75
2023-01-08T22:11:10.357Z,11.75
2023-01-08T22:13:39.116Z,11.35
2023-01-08T22:16:10.602Z,11.45
2023-01-08T22:18:39.487Z,11.18
2023-01-08T22:21:09.248Z,10.13
2023-01-08T22:23:37.456Z,12.00
2023-01-08T22:26:06.221Z,10.65
2023-01-08T22:28:34.175Z,10.90
2023-01-08T22:31:05.894Z,10.75
2023-01-08T22:33:35.168Z,11.07
2023-01-08T22:36:03.444Z,11.20
2023-01-08T22:38:31.249Z,11.52
2023-01-08T22:40:59.073Z,10.60
2023-01-08T22:43:27.072Z,10.95
2023-01-08T22:45:55.681Z,11.00
2023-01-08T22:48:24.028Z,10.55
2023-01-08T22:50:53.287Z,10.57
2023-01-08T22:53:21.541Z,10.75
2023-01-08T22:55:49.297Z,14.85
2023-01-08T22:58:17.715Z,10.63
2023-01-08T23:00:46.235Z,11.25
2023-01-08T23:03:14.147Z,10.82
2023-01-08T23:05:42.077Z,11.02
2023-01-08T23:08:11.199Z,10.57
2023-01-08T23:10:39.160Z,10.50
2023-01-08T23:13:06.821Z,11.02
2023-01-08T23:15:34.515Z,11.10
2023-01-08T23:18:02.249Z,10.70
2023-01-08T23:20:29.891Z,10.77
2023-01-08T23:22:57.564Z,10.57
2023-01-08T23:25:27.785Z,10.85
2023-01-08T23:27:55.495Z,10.73
2023-01-08T23:30:23.186Z,11.00
2023-01-08T23:32:50.999Z,10.95
2023-01-08T23:35:18.945Z,10.52
2023-01-08T23:37:46.619Z,10.50
2023-01-08T23:40:14.793Z,10.88
2023-01-08T23:42:43.977Z,10.35
2023-01-08T23:45:12.354Z,11.13
2023-01-08T23:47:40.069Z,10.90
2023-01-08T23:50:09.567Z,10.90
2023-01-08T23:52:37.277Z,11.43
2023-01-08T23:55:05.700Z,11.05
2023-01-08T23:57:33.323Z,11.68
